sensor_id;sensor_type;location;lat;lon;timestamp;pressure;altitude;pressure_sealevel;temperature;humidity
9249;BME280;4660;41.768;26.198;2024-01-10T00:01:58;102127.09;;;-1.34;100.00
9249;BME280;4660;41.768;26.198;2024-01-10T00:04:24;102148.53;;;-1.07;100.00
9249;BME280;4660;41.768;26.198;2024-01-10T00:06:49;102160.66;;;-0.97;100.00
9249;BME280;4660;41.768;26.198;2024-01-10T00:09:15;102164.06;;;-0.91;100.00
9249;BME280;4660;41.768;26.198;2024-01-10T00:11:40;102137.25;;;-1.14;100.00
9249;BME280;4660;41.768;26.198;2024-01-10T00:14:06;102160.03;;;-1.10;100.00
9249;BME280;4660;41.768;26.198;2024-01-10T00:16:32;102172.19;;;-1.00;100.00
9249;BME280;4660;41.768;26.198;2024-01-10T00:18:57;102178.44;;;-1.05;100.00
9249;BME280;4660;41.768;26.198;2024-01-10T00:21:23;102170.38;;;-0.98;100.00
9249;BME280;4660;41.768;26.198;2024-01-10T00:23:48;102172.31;;;-1.06;100.00
9249;BME280;4660;41.768;26.198;2024-01-10T00:26:14;102168.75;;;-1.05;100.00
9249;BME280;4660;41.768;26.198;2024-01-10T00:28:40;102181.13;;;-1.07;100.00
9249;BME280;4660;41.768;26.198;2024-01-10T00:31:06;102194.28;;;-1.05;100.00
9249;BME280;4660;41.768;26.198;2024-01-10T00:33:31;102191.66;;;-1.05;100.00
9249;BME280;4660;41.768;26.198;2024-01-10T00:35:57;102203.13;;;-1.06;100.00
9249;BME280;4660;41.768;26.198;2024-01-10T00:38:22;102202.09;;;-1.01;100.00
9249;BME280;4660;41.768;26.198;2024-01-10T00:40:48;102199.31;;;-0.93;100.00
9249;BME280;4660;41.768;26.198;2024-01-10T00:43:13;102199.50;;;-1.02;100.00
9249;BME280;4660;41.768;26.198;2024-01-10T00:45:39;102202.03;;;-0.96;100.00
9249;BME280;4660;41.768;26.198;2024-01-10T00:48:05;102201.22;;;-1.00;100.00
9249;BME280;4660;41.768;26.198;2024-01-10T00:50:30;102204.78;;;-1.02;100.00
9249;BME280;4660;41.768;26.198;2024-01-10T00:52:56;102198.59;;;-1.00;100.00
9249;BME280;4660;41.768;26.198;2024-01-10T00:55:22;102198.63;;;-1.03;100.00
9249;BME280;4660;41.768;26.198;2024-01-10T00:57:47;102190.66;;;-1.00;100.00
9249;BME280;4660;41.768;26.198;2024-01-10T01:00:13;102214.38;;;-0.97;100.00
9249;BME280;4660;41.768;26.198;2024-01-10T01:02:39;102204.75;;;-0.99;100.00
9249;BME280;4660;41.768;26.198;2024-01-10T01:05:05;102190.50;;;-0.92;100.00
9249;BME280;4660;41.768;26.198;2024-01-10T01:07:32;102192.25;;;-0.91;100.00
9249;BME280;4660;41.768;26.198;2024-01-10T01:09:58;102182.34;;;-0.81;100.00
9249;BME280;4660;41.768;26.198;2024-01-10T01:12:23;102194.50;;;-0.74;100.00
9249;BME280;4660;41.768;26.198;2024-01-10T01:14:49;102184.53;;;-1.02;100.00
9249;BME280;4660;41.768;26.198;2024-01-10T01:17:14;102192.69;;;-1.13;100.00
9249;BME280;4660;41.768;26.198;2024-01-10T01:19:40;102203.03;;;-1.03;100.00
9249;BME280;4660;41.768;26.198;2024-01-10T01:22:05;102199.50;;;-1.02;100.00
9249;BME280;4660;41.768;26.198;2024-01-10T01:24:31;102202.19;;;-1.04;100.00
9249;BME280;4660;41.768;26.198;2024-01-10T01:26:56;102195.88;;;-0.97;100.00
9249;BME280;4660;41.768;26.198;2024-01-10T01:29:22;102212.88;;;-1.10;100.00
9249;BME280;4660;41.768;26.198;2024-01-10T01:31:47;102188.34;;;-1.17;100.00
9249;BME280;4660;41.768;26.198;2024-01-10T01:34:13;102200.69;;;-1.17;100.00
9249;BME280;4660;41.768;26.198;2024-01-10T01:36:39;102198.19;;;-1.25;100.00
9249;BME280;4660;41.768;26.198;2024-01-10T01:39:05;102182.22;;;-1.19;100.00
9249;BME280;4660;41.768;26.198;2024-01-10T01:41:31;102180.38;;;-1.14;100.00
9249;BME280;4660;41.768;26.198;2024-01-10T01:43:56;102142.06;;;-1.36;100.00
9249;BME280;4660;41.768;26.198;2024-01-10T01:46:23;102181.41;;;-1.22;100.00
9249;BME280;4660;41.768;26.198;2024-01-10T01:48:49;102189.09;;;-1.10;100.00
9249;BME280;4660;41.768;26.198;2024-01-10T01:51:17;102191.84;;;-1.16;100.00
9249;BME280;4660;41.768;26.198;2024-01-10T01:53:44;102200.75;;;-1.20;100.00
9249;BME280;4660;41.768;26.198;2024-01-10T01:56:10;102178.13;;;-1.33;100.00
9249;BME280;4660;41.768;26.198;2024-01-10T01:58:39;102180.16;;;-1.48;100.00
9249;BME280;4660;41.768;26.198;2024-01-10T02:01:05;102167.75;;;-1.43;100.00
9249;BME280;4660;41.768;26.198;2024-01-10T02:03:31;102172.84;;;-1.33;100.00
9249;BME280;4660;41.768;26.198;2024-01-10T02:05:58;102166.84;;;-1.42;100.00
9249;BME280;4660;41.768;26.198;2024-01-10T02:08:23;102184.19;;;-1.30;100.00
9249;BME280;4660;41.768;26.198;2024-01-10T02:10:49;102178.97;;;-1.31;100.00
9249;BME280;4660;41.768;26.198;2024-01-10T02:13:15;102172.53;;;-1.18;100.00
9249;BME280;4660;41.768;26.198;2024-01-10T02:15:42;102170.81;;;-1.19;100.00
9249;BME280;4660;41.768;26.198;2024-01-10T02:18:08;102186.44;;;-1.10;100.00
9249;BME280;4660;41.768;26.198;2024-01-10T02:20:35;102173.31;;;-1.15;100.00
9249;BME280;4660;41.768;26.198;2024-01-10T02:23:01;102175.22;;;-1.20;100.00
9249;BME280;4660;41.768;26.198;2024-01-10T02:25:26;102177.78;;;-1.17;100.00
9249;BME280;4660;41.768;26.198;2024-01-10T02:27:52;102176.00;;;-1.16;100.00
9249;BME280;4660;41.768;26.198;2024-01-10T02:30:17;102187.50;;;-1.19;100.00
9249;BME280;4660;41.768;26.198;2024-01-10T02:32:43;102176.94;;;-1.19;100.00
9249;BME280;4660;41.768;26.198;2024-01-10T02:35:09;102177.38;;;-0.97;100.00
9249;BME280;4660;41.768;26.198;2024-01-10T02:37:35;102181.06;;;-1.04;100.00
9249;BME280;4660;41.768;26.198;2024-01-10T02:40:00;102181.06;;;-1.04;100.00
9249;BME280;4660;41.768;26.198;2024-01-10T02:42:27;102184.53;;;-1.02;100.00
9249;BME280;4660;41.768;26.198;2024-01-10T02:44:53;102167.72;;;-0.98;100.00
9249;BME280;4660;41.768;26.198;2024-01-10T02:47:19;102176.50;;;-0.97;100.00
9249;BME280;4660;41.768;26.198;2024-01-10T02:49:45;102181.84;;;-0.99;100.00
9249;BME280;4660;41.768;26.198;2024-01-10T02:52:10;102185.22;;;-0.94;100.00
9249;BME280;4660;41.768;26.198;2024-01-10T02:54:36;102186.09;;;-0.92;100.00
9249;BME280;4660;41.768;26.198;2024-01-10T02:57:01;102187.00;;;-0.93;100.00
9249;BME280;4660;41.768;26.198;2024-01-10T02:59:27;102181.84;;;-0.99;100.00
9249;BME280;4660;41.768;26.198;2024-01-10T03:01:53;102178.25;;;-0.96;100.00
9249;BME280;4660;41.768;26.198;2024-01-10T03:04:18;102183.66;;;-1.02;100.00
9249;BME280;4660;41.768;26.198;2024-01-10T03:06:44;102196.00;;;-1.03;100.00
9249;BME280;4660;41.768;26.198;2024-01-10T03:09:10;102189.91;;;-1.06;100.00
9249;BME280;4660;41.768;26.198;2024-01-10T03:11:36;102147.13;;;-1.24;100.00
9249;BME280;4660;41.768;26.198;2024-01-10T03:14:03;102185.38;;;-1.01;100.00
9249;BME280;4660;41.768;26.198;2024-01-10T03:16:30;102181.13;;;-1.07;100.00
9249;BME280;4660;41.768;26.198;2024-01-10T03:18:55;102189.88;;;-1.05;100.00
9249;BME280;4660;41.768;26.198;2024-01-10T03:21:21;102194.19;;;-0.99;100.00
9249;BME280;4660;41.768;26.198;2024-01-10T03:23:50;102197.69;;;-1.00;100.00
9249;BME280;4660;41.768;26.198;2024-01-10T03:26:17;102204.00;;;-1.06;100.00
9249;BME280;4660;41.768;26.198;2024-01-10T03:28:42;102215.38;;;-1.04;100.00
9249;BME280;4660;41.768;26.198;2024-01-10T03:31:10;102216.34;;;-1.06;100.00
9249;BME280;4660;41.768;26.198;2024-01-10T03:33:36;102211.00;;;-1.05;100.00
9249;BME280;4660;41.768;26.198;2024-01-10T03:36:02;102209.28;;;-1.06;100.00
9249;BME280;4660;41.768;26.198;2024-01-10T03:38:28;102204.16;;;-1.15;100.00
9249;BME280;4660;41.768;26.198;2024-01-10T03:40:53;102221.53;;;-1.03;100.00
9249;BME280;4660;41.768;26.198;2024-01-10T03:43:19;102224.13;;;-1.02;100.00
9249;BME280;4660;41.768;26.198;2024-01-10T03:45:44;102224.94;;;-0.97;100.00
9249;BME280;4660;41.768;26.198;2024-01-10T03:48:10;102210.06;;;-1.02;100.00
9249;BME280;4660;41.768;26.198;2024-01-10T03:50:35;102237.28;;;-0.97;100.00
9249;BME280;4660;41.768;26.198;2024-01-10T03:53:01;102232.78;;;-0.92;100.00
9249;BME280;4660;41.768;26.198;2024-01-10T03:55:27;102248.66;;;-0.95;100.00
9249;BME280;4660;41.768;26.198;2024-01-10T03:57:52;102245.16;;;-0.96;100.00
9249;BME280;4660;41.768;26.198;2024-01-10T04:00:18;102246.25;;;-1.06;100.00
9249;BME280;4660;41.768;26.198;2024-01-10T04:02:43;102239.00;;;-0.96;100.00
9249;BME280;4660;41.768;26.198;2024-01-10T04:05:09;102247.88;;;-0.99;100.00
9249;BME280;4660;41.768;26.198;2024-01-10T04:07:39;102249.66;;;-1.01;100.00
9249;BME280;4660;41.768;26.198;2024-01-10T04:10:05;102270.75;;;-0.98;100.00
9249;BME280;4660;41.768;26.198;2024-01-10T04:12:33;102256.75;;;-1.03;100.00
9249;BME280;4660;41.768;26.198;2024-01-10T04:14:58;102263.59;;;-0.93;100.00
9249;BME280;4660;41.768;26.198;2024-01-10T04:17:24;102272.16;;;-0.81;100.00
9249;BME280;4660;41.768;26.198;2024-01-10T04:19:50;102264.19;;;-0.78;100.00
9249;BME280;4660;41.768;26.198;2024-01-10T04:22:15;102266.66;;;-0.69;100.00
9249;BME280;4660;41.768;26.198;2024-01-10T04:24:41;102268.53;;;-0.76;100.00
9249;BME280;4660;41.768;26.198;2024-01-10T04:27:07;102273.13;;;-0.84;100.00
9249;BME280;4660;41.768;26.198;2024-01-10T04:29:32;102266.84;;;-0.78;100.00
9249;BME280;4660;41.768;26.198;2024-01-10T04:31:58;102277.53;;;-0.85;100.00
9249;BME280;4660;41.768;26.198;2024-01-10T04:34:23;102278.56;;;-0.92;100.00
9249;BME280;4660;41.768;26.198;2024-01-10T04:36:50;102280.41;;;-0.97;100.00
9249;BME280;4660;41.768;26.198;2024-01-10T04:39:15;102288.22;;;-0.91;100.00
9249;BME280;4660;41.768;26.198;2024-01-10T04:41:41;102270.78;;;-0.99;100.00
9249;BME280;4660;41.768;26.198;2024-01-10T04:44:06;102285.50;;;-0.88;100.00
9249;BME280;4660;41.768;26.198;2024-01-10T04:46:32;102294.25;;;-0.84;100.00
9249;BME280;4660;41.768;26.198;2024-01-10T04:48:59;102285.75;;;-1.00;100.00
9249;BME280;4660;41.768;26.198;2024-01-10T04:51:24;102308.50;;;-0.93;100.00
9249;BME280;4660;41.768;26.198;2024-01-10T04:53:50;102303.50;;;-1.06;100.00
9249;BME280;4660;41.768;26.198;2024-01-10T04:56:15;102304.19;;;-0.97;100.00
9249;BME280;4660;41.768;26.198;2024-01-10T04:58:41;102307.72;;;-0.98;100.00
9249;BME280;4660;41.768;26.198;2024-01-10T05:01:07;102319.84;;;-0.88;100.00
9249;BME280;4660;41.768;26.198;2024-01-10T05:03:32;102305.88;;;-0.94;100.00
9249;BME280;4660;41.768;26.198;2024-01-10T05:05:58;102314.84;;;-1.03;100.00
9249;BME280;4660;41.768;26.198;2024-01-10T05:08:23;102313.97;;;-1.03;100.00
9249;BME280;4660;41.768;26.198;2024-01-10T05:10:49;102325.41;;;-1.03;100.00
9249;BME280;4660;41.768;26.198;2024-01-10T05:13:14;102314.28;;;-1.22;100.00
9249;BME280;4660;41.768;26.198;2024-01-10T05:15:40;102333.78;;;-1.27;100.00
9249;BME280;4660;41.768;26.198;2024-01-10T05:18:06;102330.13;;;-1.22;100.00
9249;BME280;4660;41.768;26.198;2024-01-10T05:20:31;102342.53;;;-1.25;100.00
9249;BME280;4660;41.768;26.198;2024-01-10T05:22:57;102351.44;;;-1.31;100.00
9249;BME280;4660;41.768;26.198;2024-01-10T05:25:24;102344.50;;;-1.38;100.00
9249;BME280;4660;41.768;26.198;2024-01-10T05:27:50;102355.94;;;-1.38;100.00
9249;BME280;4660;41.768;26.198;2024-01-10T05:30:16;102353.16;;;-1.28;100.00
9249;BME280;4660;41.768;26.198;2024-01-10T05:32:43;102367.13;;;-1.23;100.00
9249;BME280;4660;41.768;26.198;2024-01-10T05:35:09;102362.81;;;-1.27;100.00
9249;BME280;4660;41.768;26.198;2024-01-10T05:37:36;102366.50;;;-1.38;100.00
9249;BME280;4660;41.768;26.198;2024-01-10T05:40:02;102357.94;;;-1.53;100.00
9249;BME280;4660;41.768;26.198;2024-01-10T05:42:30;102368.22;;;-1.36;100.00
9249;BME280;4660;41.768;26.198;2024-01-10T05:44:55;102370.13;;;-1.45;100.00
9249;BME280;4660;41.768;26.198;2024-01-10T05:47:21;102374.50;;;-1.42;100.00
9249;BME280;4660;41.768;26.198;2024-01-10T05:49:46;102363.19;;;-1.52;100.00
9249;BME280;4660;41.768;26.198;2024-01-10T05:52:12;102372.72;;;-1.43;100.00
9249;BME280;4660;41.768;26.198;2024-01-10T05:54:38;102370.97;;;-1.41;100.00
9249;BME280;4660;41.768;26.198;2024-01-10T05:57:04;102369.31;;;-1.48;100.00
9249;BME280;4660;41.768;26.198;2024-01-10T05:59:30;102384.19;;;-1.43;100.00
9249;BME280;4660;41.768;26.198;2024-01-10T06:01:56;102370.78;;;-1.30;100.00
9249;BME280;4660;41.768;26.198;2024-01-10T06:04:24;102375.31;;;-1.39;100.00
9249;BME280;4660;41.768;26.198;2024-01-10T06:06:49;102385.84;;;-1.37;100.00
9249;BME280;4660;41.768;26.198;2024-01-10T06:09:15;102370.19;;;-1.48;100.00
9249;BME280;4660;41.768;26.198;2024-01-10T06:11:47;102389.34;;;-1.35;100.00
9249;BME280;4660;41.768;26.198;2024-01-10T06:14:12;102385.09;;;-1.45;100.00
9249;BME280;4660;41.768;26.198;2024-01-10T06:16:38;102394.00;;;-1.52;100.00
9249;BME280;4660;41.768;26.198;2024-01-10T06:19:03;102395.72;;;-1.48;100.00
9249;BME280;4660;41.768;26.198;2024-01-10T06:21:29;102400.91;;;-1.44;100.00
9249;BME280;4660;41.768;26.198;2024-01-10T06:23:55;102390.53;;;-1.54;100.00
9249;BME280;4660;41.768;26.198;2024-01-10T06:26:20;102402.00;;;-1.58;100.00
9249;BME280;4660;41.768;26.198;2024-01-10T06:28:47;102402.75;;;-1.50;100.00
9249;BME280;4660;41.768;26.198;2024-01-10T06:31:13;102379.69;;;-1.38;100.00
9249;BME280;4660;41.768;26.198;2024-01-10T06:33:39;102406.84;;;-1.29;100.00
9249;BME280;4660;41.768;26.198;2024-01-10T06:36:05;102413.16;;;-1.40;100.00
9249;BME280;4660;41.768;26.198;2024-01-10T06:38:30;102415.16;;;-1.54;100.00
9249;BME280;4660;41.768;26.198;2024-01-10T06:40:56;102410.72;;;-1.53;100.00
9249;BME280;4660;41.768;26.198;2024-01-10T06:43:21;102408.81;;;-1.42;100.00
9249;BME280;4660;41.768;26.198;2024-01-10T06:45:47;102399.91;;;-1.36;100.00
9249;BME280;4660;41.768;26.198;2024-01-10T06:48:13;102394.44;;;-1.24;100.00
9249;BME280;4660;41.768;26.198;2024-01-10T06:50:40;102406.63;;;-1.14;100.00
9249;BME280;4660;41.768;26.198;2024-01-10T06:53:06;102391.88;;;-1.27;100.00
9249;BME280;4660;41.768;26.198;2024-01-10T06:55:33;102413.81;;;-1.24;100.00
9249;BME280;4660;41.768;26.198;2024-01-10T06:57:59;102404.06;;;-1.22;100.00
9249;BME280;4660;41.768;26.198;2024-01-10T07:00:25;102397.84;;;-1.16;100.00
9249;BME280;4660;41.768;26.198;2024-01-10T07:02:52;102406.56;;;-1.11;100.00
9249;BME280;4660;41.768;26.198;2024-01-10T07:05:18;102412.69;;;-1.09;100.00
9249;BME280;4660;41.768;26.198;2024-01-10T07:07:45;102415.28;;;-1.06;97.92
9249;BME280;4660;41.768;26.198;2024-01-10T07:10:10;102403.91;;;-1.11;99.30
9249;BME280;4660;41.768;26.198;2024-01-10T07:12:37;102382.66;;;-1.03;100.00
9249;BME280;4660;41.768;26.198;2024-01-10T07:15:03;102412.28;;;-0.86;100.00
9249;BME280;4660;41.768;26.198;2024-01-10T07:17:28;102415.75;;;-0.82;100.00
9249;BME280;4660;41.768;26.198;2024-01-10T07:19:54;102407.13;;;-0.92;99.21
9249;BME280;4660;41.768;26.198;2024-01-10T07:22:22;102400.91;;;-0.90;99.17
9249;BME280;4660;41.768;26.198;2024-01-10T07:24:48;102406.00;;;-0.79;100.00
9249;BME280;4660;41.768;26.198;2024-01-10T07:27:14;102416.75;;;-0.90;99.30
9249;BME280;4660;41.768;26.198;2024-01-10T07:29:41;102422.16;;;-0.96;100.00
9249;BME280;4660;41.768;26.198;2024-01-10T07:32:07;102422.28;;;-1.03;100.00
9249;BME280;4660;41.768;26.198;2024-01-10T07:34:39;102436.53;;;-1.15;100.00
9249;BME280;4660;41.768;26.198;2024-01-10T07:37:05;102421.81;;;-1.28;100.00
9249;BME280;4660;41.768;26.198;2024-01-10T07:39:31;102429.75;;;-1.31;100.00
9249;BME280;4660;41.768;26.198;2024-01-10T07:41:57;102431.16;;;-1.09;100.00
9249;BME280;4660;41.768;26.198;2024-01-10T07:44:23;102429.25;;;-1.01;100.00
9249;BME280;4660;41.768;26.198;2024-01-10T07:46:49;102438.94;;;-0.98;100.00
9249;BME280;4660;41.768;26.198;2024-01-10T07:49:19;102441.34;;;-0.85;100.00
9249;BME280;4660;41.768;26.198;2024-01-10T07:51:46;102435.19;;;-0.87;100.00
9249;BME280;4660;41.768;26.198;2024-01-10T07:54:12;102439.44;;;-0.76;100.00
9249;BME280;4660;41.768;26.198;2024-01-10T07:56:38;102440.34;;;-0.77;100.00
9249;BME280;4660;41.768;26.198;2024-01-10T07:59:05;102437.00;;;-0.89;100.00
9249;BME280;4660;41.768;26.198;2024-01-10T08:01:30;102446.63;;;-0.85;100.00
9249;BME280;4660;41.768;26.198;2024-01-10T08:03:56;102450.97;;;-0.82;100.00
9249;BME280;4660;41.768;26.198;2024-01-10T08:06:21;102443.81;;;-0.75;100.00
9249;BME280;4660;41.768;26.198;2024-01-10T08:08:48;102450.00;;;-0.76;100.00
9249;BME280;4660;41.768;26.198;2024-01-10T08:11:13;102439.63;;;-0.89;98.44
9249;BME280;4660;41.768;26.198;2024-01-10T08:13:39;102432.66;;;-0.91;99.25
9249;BME280;4660;41.768;26.198;2024-01-10T08:16:05;102453.13;;;-0.54;97.26
9249;BME280;4660;41.768;26.198;2024-01-10T08:18:34;102427.19;;;-0.82;90.24
9249;BME280;4660;41.768;26.198;2024-01-10T08:21:00;102443.63;;;-0.63;88.40
9249;BME280;4660;41.768;26.198;2024-01-10T08:23:25;102448.91;;;-0.63;85.72
9249;BME280;4660;41.768;26.198;2024-01-10T08:25:51;102436.59;;;-0.64;85.49
9249;BME280;4660;41.768;26.198;2024-01-10T08:28:19;102450.53;;;-0.56;84.80
9249;BME280;4660;41.768;26.198;2024-01-10T08:30:45;102419.25;;;-0.80;84.26
9249;BME280;4660;41.768;26.198;2024-01-10T08:33:10;102427.22;;;-0.84;84.47
9249;BME280;4660;41.768;26.198;2024-01-10T08:35:36;102440.09;;;-0.64;83.73
9249;BME280;4660;41.768;26.198;2024-01-10T08:38:02;102449.69;;;-0.60;84.23
9249;BME280;4660;41.768;26.198;2024-01-10T08:40:31;102427.56;;;-0.54;85.70
9249;BME280;4660;41.768;26.198;2024-01-10T08:42:57;102442.13;;;-0.32;82.46
9249;BME280;4660;41.768;26.198;2024-01-10T08:45:23;102438.47;;;-0.24;83.59
9249;BME280;4660;41.768;26.198;2024-01-10T08:47:50;102444.50;;;-0.18;83.79
9249;BME280;4660;41.768;26.198;2024-01-10T08:50:15;102447.94;;;-0.13;83.91
9249;BME280;4660;41.768;26.198;2024-01-10T08:52:41;102450.19;;;-0.38;84.81
9249;BME280;4660;41.768;26.198;2024-01-10T08:55:07;102434.88;;;-0.20;85.67
9249;BME280;4660;41.768;26.198;2024-01-10T08:57:32;102446.06;;;-0.08;82.96
9249;BME280;4660;41.768;26.198;2024-01-10T08:59:58;102423.22;;;-0.12;82.90
9249;BME280;4660;41.768;26.198;2024-01-10T09:02:25;102416.56;;;-0.31;82.23
9249;BME280;4660;41.768;26.198;2024-01-10T09:04:53;102439.09;;;-0.12;84.31
9249;BME280;4660;41.768;26.198;2024-01-10T09:07:19;102421.69;;;-0.23;83.84
9249;BME280;4660;41.768;26.198;2024-01-10T09:09:47;102430.25;;;-0.11;82.46
9249;BME280;4660;41.768;26.198;2024-01-10T09:12:12;102436.47;;;-0.12;84.03
9249;BME280;4660;41.768;26.198;2024-01-10T09:14:38;102434.28;;;0.09;84.41
9249;BME280;4660;41.768;26.198;2024-01-10T09:17:04;102387.84;;;-0.08;83.71
9249;BME280;4660;41.768;26.198;2024-01-10T09:19:30;102421.63;;;0.21;83.36
9249;BME280;4660;41.768;26.198;2024-01-10T09:21:56;102394.91;;;-0.07;83.62
9249;BME280;4660;41.768;26.198;2024-01-10T09:24:23;102421.97;;;0.06;82.96
9249;BME280;4660;41.768;26.198;2024-01-10T09:26:51;102417.66;;;0.02;82.46
9249;BME280;4660;41.768;26.198;2024-01-10T09:29:17;102413.13;;;0.07;84.88
9249;BME280;4660;41.768;26.198;2024-01-10T09:31:42;102394.28;;;0.22;84.44
9249;BME280;4660;41.768;26.198;2024-01-10T09:34:09;102384.88;;;0.48;84.76
9249;BME280;4660;41.768;26.198;2024-01-10T09:36:34;102401.88;;;0.75;83.13
9249;BME280;4660;41.768;26.198;2024-01-10T09:39:00;102402.78;;;0.74;80.79
9249;BME280;4660;41.768;26.198;2024-01-10T09:41:28;102415.16;;;0.73;81.60
9249;BME280;4660;41.768;26.198;2024-01-10T09:43:54;102405.59;;;0.68;80.37
9249;BME280;4660;41.768;26.198;2024-01-10T09:46:22;102395.09;;;0.63;76.91
9249;BME280;4660;41.768;26.198;2024-01-10T09:48:48;102399.53;;;0.63;75.41
9249;BME280;4660;41.768;26.198;2024-01-10T09:51:14;102401.06;;;0.71;72.13
9249;BME280;4660;41.768;26.198;2024-01-10T09:53:44;102402.03;;;0.69;72.02
9249;BME280;4660;41.768;26.198;2024-01-10T09:56:15;102406.13;;;0.82;73.90
9249;BME280;4660;41.768;26.198;2024-01-10T09:58:44;102380.06;;;0.65;70.05
9249;BME280;4660;41.768;26.198;2024-01-10T10:01:11;102367.16;;;0.51;70.02
9249;BME280;4660;41.768;26.198;2024-01-10T10:03:46;102391.00;;;0.86;69.33
9249;BME280;4660;41.768;26.198;2024-01-10T10:06:13;102391.16;;;1.15;70.58
9249;BME280;4660;41.768;26.198;2024-01-10T10:08:39;102380.72;;;1.09;69.26
9249;BME280;4660;41.768;26.198;2024-01-10T10:11:11;102386.38;;;1.28;69.56
9249;BME280;4660;41.768;26.198;2024-01-10T10:13:38;102387.75;;;1.10;68.46
9249;BME280;4660;41.768;26.198;2024-01-10T10:16:07;102392.94;;;1.15;68.44
9249;BME280;4660;41.768;26.198;2024-01-10T10:18:35;102354.22;;;1.09;69.44
9249;BME280;4660;41.768;26.198;2024-01-10T10:21:13;102353.88;;;1.21;69.26
9249;BME280;4660;41.768;26.198;2024-01-10T10:23:40;102370.84;;;1.16;68.87
9249;BME280;4660;41.768;26.198;2024-01-10T10:26:16;102366.03;;;1.28;68.90
9249;BME280;4660;41.768;26.198;2024-01-10T10:28:46;102364.00;;;1.40;67.96
9249;BME280;4660;41.768;26.198;2024-01-10T10:31:12;102359.50;;;1.42;65.52
9249;BME280;4660;41.768;26.198;2024-01-10T10:33:39;102347.38;;;1.33;62.98
9249;BME280;4660;41.768;26.198;2024-01-10T10:36:06;102352.56;;;1.37;64.41
9249;BME280;4660;41.768;26.198;2024-01-10T10:38:32;102344.25;;;1.50;65.54
9249;BME280;4660;41.768;26.198;2024-01-10T10:40:59;102301.81;;;1.50;64.95
9249;BME280;4660;41.768;26.198;2024-01-10T10:43:25;102340.31;;;1.64;65.14
9249;BME280;4660;41.768;26.198;2024-01-10T10:45:51;102341.31;;;1.60;67.64
9249;BME280;4660;41.768;26.198;2024-01-10T10:48:19;102340.38;;;1.61;66.64
9249;BME280;4660;41.768;26.198;2024-01-10T10:51:17;102351.09;;;1.58;68.58
9249;BME280;4660;41.768;26.198;2024-01-10T10:53:45;102339.84;;;1.50;64.69
9249;BME280;4660;41.768;26.198;2024-01-10T10:56:12;102320.47;;;1.47;65.97
9249;BME280;4660;41.768;26.198;2024-01-10T10:58:43;102336.97;;;1.58;68.00
9249;BME280;4660;41.768;26.198;2024-01-10T11:01:12;102326.34;;;1.58;66.63
9249;BME280;4660;41.768;26.198;2024-01-10T11:03:40;102318.09;;;1.37;64.88
9249;BME280;4660;41.768;26.198;2024-01-10T11:06:10;102322.38;;;1.42;66.53
9249;BME280;4660;41.768;26.198;2024-01-10T11:08:47;102329.28;;;1.47;67.69
9249;BME280;4660;41.768;26.198;2024-01-10T11:17:19;102320.78;;;1.67;68.45
9249;BME280;4660;41.768;26.198;2024-01-10T11:25:16;102308.31;;;1.69;72.81
9249;BME280;4660;41.768;26.198;2024-01-10T11:27:43;102319.22;;;1.89;71.98
9249;BME280;4660;41.768;26.198;2024-01-10T11:30:10;102317.66;;;1.82;68.83
9249;BME280;4660;41.768;26.198;2024-01-10T11:32:37;102306.00;;;1.88;67.75
9249;BME280;4660;41.768;26.198;2024-01-10T11:35:11;102310.25;;;1.93;62.15
9249;BME280;4660;41.768;26.198;2024-01-10T11:37:44;102307.63;;;1.92;59.54
9249;BME280;4660;41.768;26.198;2024-01-10T11:40:11;102284.75;;;1.88;58.86
9249;BME280;4660;41.768;26.198;2024-01-10T11:42:45;102300.75;;;1.86;60.81
9249;BME280;4660;41.768;26.198;2024-01-10T11:48:00;102300.81;;;1.83;65.59
9249;BME280;4660;41.768;26.198;2024-01-10T11:50:27;102297.00;;;1.92;66.37
9249;BME280;4660;41.768;26.198;2024-01-10T11:52:53;102293.50;;;2.19;67.92
9249;BME280;4660;41.768;26.198;2024-01-10T11:55:47;102292.00;;;2.11;67.68
9249;BME280;4660;41.768;26.198;2024-01-10T11:58:13;102280.66;;;2.06;67.58
9249;BME280;4660;41.768;26.198;2024-01-10T12:00:40;102292.63;;;2.19;64.51
9249;BME280;4660;41.768;26.198;2024-01-10T12:03:07;102293.00;;;2.35;63.92
9249;BME280;4660;41.768;26.198;2024-01-10T12:05:34;102275.25;;;2.37;60.53
9249;BME280;4660;41.768;26.198;2024-01-10T12:08:00;102259.75;;;2.23;61.27
9249;BME280;4660;41.768;26.198;2024-01-10T12:10:29;102252.41;;;2.31;58.79
9249;BME280;4660;41.768;26.198;2024-01-10T12:13:00;102283.97;;;2.40;59.93
9249;BME280;4660;41.768;26.198;2024-01-10T12:15:26;102283.34;;;2.32;56.56
9249;BME280;4660;41.768;26.198;2024-01-10T12:17:52;102285.00;;;2.36;59.07
9249;BME280;4660;41.768;26.198;2024-01-10T12:20:18;102272.94;;;2.26;57.71
9249;BME280;4660;41.768;26.198;2024-01-10T12:22:43;102278.53;;;2.17;56.15
9249;BME280;4660;41.768;26.198;2024-01-10T12:25:09;102277.69;;;2.16;57.99
9249;BME280;4660;41.768;26.198;2024-01-10T12:27:35;102253.84;;;2.15;60.14
9249;BME280;4660;41.768;26.198;2024-01-10T12:30:01;102269.97;;;2.35;57.18
9249;BME280;4660;41.768;26.198;2024-01-10T12:32:28;102257.66;;;2.33;56.75
9249;BME280;4660;41.768;26.198;2024-01-10T12:35:15;102278.34;;;2.49;55.42
9249;BME280;4660;41.768;26.198;2024-01-10T12:37:53;102273.41;;;2.65;58.11
9249;BME280;4660;41.768;26.198;2024-01-10T12:40:20;102269.13;;;2.86;57.17
9249;BME280;4660;41.768;26.198;2024-01-10T12:42:46;102270.31;;;2.78;50.44
9249;BME280;4660;41.768;26.198;2024-01-10T12:45:22;102284.25;;;2.84;47.77
9249;BME280;4660;41.768;26.198;2024-01-10T12:47:48;102268.41;;;2.81;45.73
9249;BME280;4660;41.768;26.198;2024-01-10T12:50:15;102272.38;;;2.94;46.36
9249;BME280;4660;41.768;26.198;2024-01-10T12:52:41;102274.00;;;2.98;45.71
9249;BME280;4660;41.768;26.198;2024-01-10T12:55:08;102270.53;;;2.96;45.10
9249;BME280;4660;41.768;26.198;2024-01-10T12:57:34;102285.03;;;2.88;44.91
9249;BME280;4660;41.768;26.198;2024-01-10T12:59:59;102240.03;;;2.57;45.04
9249;BME280;4660;41.768;26.198;2024-01-10T13:02:25;102270.00;;;2.87;47.18
9249;BME280;4660;41.768;26.198;2024-01-10T13:04:51;102277.91;;;2.88;46.45
9249;BME280;4660;41.768;26.198;2024-01-10T13:07:17;102274.84;;;3.00;50.81
9249;BME280;4660;41.768;26.198;2024-01-10T13:09:44;102280.63;;;3.12;63.11